createdAt,value
2023-03-17T00:01:54.482Z,23.33
2023-03-17T00:04:43.958Z,23.47
2023-03-17T00:07:32.994Z,22.53
2023-03-17T00:10:23.544Z,23.20
2023-03-17T00:13:14.783Z,23.37
2023-03-17T00:16:06.414Z,22.30
2023-03-17T00:18:56.385Z,23.20
2023-03-17T00:21:46.137Z,23.87
2023-03-17T00:24:35.479Z,23.17
2023-03-17T00:27:25.128Z,22.80
2023-03-17T00:30:15.881Z,22.73
2023-03-17T00:33:09.545Z,23.80
2023-03-17T00:35:59.486Z,22.50
2023-03-17T00:38:48.759Z,22.97
2023-03-17T00:41:37.776Z,23.27
2023-03-17T00:44:28.455Z,23.80
2023-03-17T00:47:19.406Z,24.03
2023-03-17T00:50:12.335Z,22.23
2023-03-17T00:53:01.597Z,21.73
2023-03-17T00:55:50.828Z,22.70
2023-03-17T00:58:40.245Z,22.47
2023-03-17T01:01:28.941Z,22.67
2023-03-17T01:04:19.692Z,21.83
2023-03-17T01:07:11.298Z,24.00
2023-03-17T01:10:01.322Z,23.87
2023-03-17T01:12:50.043Z,25.30
2023-03-17T01:15:41.703Z,25.03
2023-03-17T01:18:30.827Z,25.07
2023-03-17T01:21:21.133Z,23.43
2023-03-17T01:24:10.283Z,24.43
2023-03-17T01:26:59.030Z,23.97
2023-03-17T01:29:47.766Z,22.63
2023-03-17T01:32:36.448Z,25.17
2023-03-17T01:35:27.043Z,25.80
2023-03-17T01:38:17.652Z,24.80
2023-03-17T01:41:06.734Z,24.67
2023-03-17T01:43:55.449Z,25.40
2023-03-17T01:46:45.499Z,26.00
2023-03-17T01:49:38.210Z,24.87
2023-03-17T01:52:27.721Z,25.47
2023-03-17T01:55:21.450Z,26.27
2023-03-17T01:58:12.201Z,25.97
2023-03-17T02:01:01.464Z,25.77
2023-03-17T02:03:50.790Z,26.63
2023-03-17T02:06:56.820Z,27.63
2023-03-17T02:09:46.878Z,26.27
2023-03-17T02:12:38.105Z,26.53
2023-03-17T02:15:39.040Z,26.70
2023-03-17T02:18:27.887Z,27.27
2023-03-17T02:21:41.198Z,27.47
2023-03-17T02:24:34.445Z,26.97
2023-03-17T02:27:27.827Z,27.90
2023-03-17T02:30:19.217Z,26.60
2023-03-17T02:33:08.201Z,26.90
2023-03-17T02:36:00.061Z,27.07
2023-03-17T02:38:50.446Z,27.10
2023-03-17T02:41:39.398Z,26.03
2023-03-17T02:44:31.654Z,26.00
2023-03-17T02:47:21.788Z,27.60
2023-03-17T02:50:16.794Z,28.60
2023-03-17T02:53:05.560Z,27.53
2023-03-17T02:55:55.947Z,27.50
2023-03-17T02:58:44.961Z,28.07
2023-03-17T03:01:34.109Z,28.70
2023-03-17T03:04:23.996Z,29.83
2023-03-17T03:07:13.016Z,29.13
2023-03-17T03:10:02.419Z,28.93
2023-03-17T03:12:52.416Z,29.67
2023-03-17T03:15:46.445Z,30.10
2023-03-17T03:18:35.066Z,29.70
2023-03-17T03:21:23.882Z,30.03
2023-03-17T03:24:13.225Z,30.97
2023-03-17T03:27:02.394Z,29.53
2023-03-17T03:29:52.653Z,30.90
2023-03-17T03:32:41.427Z,31.43
2023-03-17T03:35:30.955Z,30.90
2023-03-17T03:38:20.145Z,31.03
2023-03-17T03:41:09.127Z,31.10
2023-03-17T03:43:57.783Z,31.37
2023-03-17T03:46:48.117Z,32.03
2023-03-17T03:49:36.978Z,31.97
2023-03-17T03:52:25.685Z,32.03
2023-03-17T03:55:14.445Z,31.17
2023-03-17T03:58:03.345Z,33.47
2023-03-17T04:00:52.130Z,33.37
2023-03-17T04:03:42.286Z,33.67
2023-03-17T04:06:31.076Z,35.23
2023-03-17T04:09:19.884Z,36.53
2023-03-17T04:12:09.784Z,38.20
2023-03-17T04:14:58.672Z,38.67
2023-03-17T04:17:47.834Z,37.67
2023-03-17T04:20:38.725Z,38.10
2023-03-17T04:23:27.848Z,38.00
2023-03-17T04:26:17.973Z,37.37
2023-03-17T04:29:08.139Z,38.10
2023-03-17T04:31:57.231Z,38.70
2023-03-17T04:34:46.463Z,37.53
2023-03-17T04:37:36.850Z,38.73
2023-03-17T04:40:25.660Z,39.53
2023-03-17T04:43:14.441Z,37.07
2023-03-17T04:46:03.710Z,38.43
2023-03-17T04:48:52.533Z,40.17
2023-03-17T04:51:41.329Z,39.00
2023-03-17T04:54:31.344Z,39.10
2023-03-17T04:57:20.776Z,36.97
2023-03-17T05:00:12.034Z,36.57
2023-03-17T05:03:00.980Z,37.03
2023-03-17T05:05:50.803Z,36.27
2023-03-17T05:08:39.630Z,36.13
2023-03-17T05:11:33.985Z,37.73
2023-03-17T05:14:22.751Z,35.97
2023-03-17T05:17:11.722Z,36.13
2023-03-17T05:20:00.611Z,36.60
2023-03-17T05:22:49.522Z,35.23
2023-03-17T05:25:38.724Z,35.20
2023-03-17T05:28:29.104Z,34.90
2023-03-17T05:31:19.272Z,35.90
2023-03-17T05:34:08.154Z,34.67
2023-03-17T05:36:57.119Z,34.30
2023-03-17T05:39:46.131Z,34.13
2023-03-17T05:42:34.982Z,33.80
2023-03-17T05:45:25.386Z,33.50
2023-03-17T05:48:14.216Z,31.77
2023-03-17T05:51:03.214Z,31.27
2023-03-17T05:53:52.341Z,32.00
2023-03-17T05:56:42.890Z,32.70
2023-03-17T05:59:32.183Z,31.13
2023-03-17T06:02:22.449Z,30.17
2023-03-17T06:05:11.625Z,30.77
2023-03-17T06:08:01.013Z,30.97
2023-03-17T06:10:49.743Z,31.33
2023-03-17T06:13:38.592Z,32.33
2023-03-17T06:16:30.681Z,31.90
2023-03-17T06:19:21.643Z,31.27
2023-03-17T06:22:10.423Z,31.63
2023-03-17T06:24:59.588Z,31.03
2023-03-17T06:27:48.396Z,29.97
2023-03-17T06:30:40.642Z,29.67
2023-03-17T06:33:29.617Z,28.93
2023-03-17T06:36:19.938Z,28.43
2023-03-17T06:39:09.586Z,27.47
2023-03-17T06:41:58.336Z,28.53
2023-03-17T06:44:47.201Z,29.57
2023-03-17T06:47:37.428Z,28.67
2023-03-17T06:50:26.436Z,27.17
2023-03-17T06:53:16.813Z,25.27
2023-03-17T06:56:06.373Z,25.60
2023-03-17T06:58:55.115Z,26.83
2023-03-17T07:01:44.566Z,25.37
2023-03-17T07:04:33.457Z,24.37
2023-03-17T07:07:22.355Z,24.97
2023-03-17T07:10:17.316Z,25.03
2023-03-17T07:13:07.897Z,26.47
2023-03-17T07:16:00.335Z,25.73
2023-03-17T07:18:49.766Z,25.73
2023-03-17T07:21:38.458Z,24.37
2023-03-17T07:24:27.348Z,24.53
2023-03-17T07:27:18.025Z,23.73
2023-03-17T07:30:08.194Z,24.93
2023-03-17T07:32:58.326Z,24.63
2023-03-17T07:35:47.391Z,21.70
2023-03-17T07:38:36.582Z,22.00
2023-03-17T07:41:26.273Z,22.93
2023-03-17T07:44:16.484Z,22.67
2023-03-17T07:47:05.669Z,23.00
2023-03-17T07:49:55.020Z,21.53
2023-03-17T07:52:43.915Z,22.87
2023-03-17T07:55:33.815Z,21.97
2023-03-17T07:58:22.888Z,22.00
2023-03-17T08:01:13.084Z,20.33
2023-03-17T08:04:02.259Z,21.53
2023-03-17T08:06:51.109Z,20.63
2023-03-17T08:09:40.329Z,19.87
2023-03-17T08:12:29.229Z,20.33
2023-03-17T08:15:18.084Z,20.23
2023-03-17T08:18:08.248Z,19.30
2023-03-17T08:20:56.973Z,19.80
2023-03-17T08:23:46.240Z,18.33
2023-03-17T08:26:35.140Z,18.67
2023-03-17T08:29:24.102Z,17.53
2023-03-17T08:32:13.503Z,16.77
2023-03-17T08:35:06.436Z,15.93
2023-03-17T08:37:56.238Z,15.75
2023-03-17T08:40:46.040Z,14.48
2023-03-17T08:43:34.998Z,13.52
2023-03-17T08:46:26.034Z,14.02
2023-03-17T08:49:14.960Z,12.40
2023-03-17T08:52:05.811Z,13.27
2023-03-17T08:54:54.629Z,10.68
2023-03-17T08:57:44.851Z,10.48
2023-03-17T09:00:34.013Z,10.98
2023-03-17T09:03:22.887Z,12.65
2023-03-17T09:06:12.520Z,10.55
2023-03-17T09:09:02.725Z,12.00
2023-03-17T09:11:51.576Z,12.05
2023-03-17T09:14:44.425Z,7.28
2023-03-17T09:17:34.751Z,8.00
2023-03-17T09:20:23.884Z,7.50
2023-03-17T09:23:13.876Z,6.80
2023-03-17T09:26:04.461Z,5.75
2023-03-17T09:28:53.272Z,6.05
2023-03-17T09:31:44.022Z,6.13
2023-03-17T09:34:32.916Z,5.72
2023-03-17T09:37:21.960Z,5.70
2023-03-17T09:40:17.243Z,6.05
2023-03-17T09:43:18.206Z,6.20
2023-03-17T09:46:22.720Z,5.82
2023-03-17T09:49:15.593Z,5.50
2023-03-17T09:52:04.951Z,5.25
2023-03-17T09:54:53.756Z,5.30
2023-03-17T09:57:42.593Z,5.57
2023-03-17T10:00:33.703Z,5.05
2023-03-17T10:03:23.033Z,5.55
2023-03-17T10:06:25.414Z,5.25
2023-03-17T10:09:26.223Z,5.10
2023-03-17T10:12:26.102Z,4.95
2023-03-17T10:15:22.633Z,5.70
2023-03-17T10:18:15.515Z,5.15
2023-03-17T10:21:07.841Z,5.40
2023-03-17T10:23:59.391Z,5.30
2023-03-17T10:26:51.152Z,5.88
2023-03-17T10:29:40.876Z,6.10
2023-03-17T10:32:41.726Z,6.18
2023-03-17T10:35:36.230Z,6.18
2023-03-17T10:38:26.868Z,6.28
2023-03-17T10:41:16.987Z,6.38
2023-03-17T10:44:11.184Z,5.95
2023-03-17T10:47:00.960Z,5.88
2023-03-17T10:49:49.864Z,6.13
2023-03-17T10:52:41.027Z,6.57
2023-03-17T10:55:33.606Z,5.80
2023-03-17T10:58:27.028Z,6.22
2023-03-17T11:01:21.800Z,6.35
2023-03-17T11:04:29.831Z,6.30
2023-03-17T11:07:21.376Z,6.45
2023-03-17T11:10:20.169Z,5.95
2023-03-17T11:13:10.490Z,5.93
2023-03-17T11:16:10.582Z,7.18
2023-03-17T11:19:02.495Z,6.45
2023-03-17T11:21:57.281Z,6.47
2023-03-17T11:24:57.315Z,6.18
2023-03-17T11:27:53.357Z,6.13
2023-03-17T11:30:47.605Z,6.97
2023-03-17T11:33:40.716Z,6.68
2023-03-17T11:36:46.346Z,6.15
2023-03-17T11:39:43.915Z,6.80
2023-03-17T11:42:38.577Z,7.15
2023-03-17T11:45:33.876Z,7.88
2023-03-17T11:48:30.464Z,7.25
2023-03-17T11:51:27.801Z,7.40
2023-03-17T11:54:24.715Z,7.90
2023-03-17T11:57:20.467Z,7.85
2023-03-17T12:00:20.526Z,9.00
2023-03-17T12:03:20.184Z,8.82
2023-03-17T12:06:15.933Z,8.18
2023-03-17T12:09:16.536Z,8.20
2023-03-17T12:12:07.226Z,8.07
2023-03-17T12:14:59.407Z,8.32
2023-03-17T12:17:55.494Z,8.52
2023-03-17T12:20:52.203Z,8.88
2023-03-17T12:23:48.252Z,8.88
2023-03-17T12:26:39.904Z,9.40
2023-03-17T12:29:43.882Z,9.00
2023-03-17T12:32:39.516Z,9.20
2023-03-17T12:35:31.730Z,9.23
2023-03-17T12:38:29.371Z,9.48
2023-03-17T12:41:36.555Z,9.32
2023-03-17T12:44:38.283Z,9.27
2023-03-17T12:47:49.696Z,9.00
2023-03-17T12:51:06.108Z,8.73
2023-03-17T12:53:57.030Z,9.73
2023-03-17T12:56:47.797Z,9.52
2023-03-17T12:59:37.700Z,8.75
2023-03-17T13:02:38.434Z,8.38
2023-03-17T13:05:34.157Z,7.30
2023-03-17T13:08:28.319Z,8.05
2023-03-17T13:11:21.156Z,6.82
2023-03-17T13:14:24.722Z,6.70
2023-03-17T13:17:34.965Z,7.67
2023-03-17T13:20:39.153Z,6.88
2023-03-17T13:23:37.086Z,5.88
2023-03-17T13:27:02.044Z,6.13
2023-03-17T13:29:50.860Z,6.03
2023-03-17T13:32:40.140Z,6.05
2023-03-17T13:35:48.028Z,6.28
2023-03-17T13:39:14.998Z,6.88
2023-03-17T13:42:20.610Z,6.90
2023-03-17T13:45:23.351Z,7.00
2023-03-17T13:48:34.252Z,6.47
2023-03-17T13:51:25.025Z,7.25
2023-03-17T13:54:30.110Z,7.15
2023-03-17T13:57:30.863Z,8.10
2023-03-17T14:00:24.485Z,7.95
2023-03-17T14:03:17.551Z,8.35
2023-03-17T14:06:11.979Z,7.85
2023-03-17T14:09:08.147Z,8.38
2023-03-17T14:12:00.846Z,8.23
2023-03-17T14:14:54.986Z,7.78
2023-03-17T14:17:47.753Z,8.02
2023-03-17T14:20:36.519Z,8.68
2023-03-17T14:23:26.316Z,7.90
2023-03-17T14:26:15.443Z,7.20
2023-03-17T14:29:05.534Z,9.43
2023-03-17T14:32:05.277Z,8.00
2023-03-17T14:34:59.531Z,8.75
2023-03-17T14:37:48.306Z,15.20
2023-03-17T14:40:37.086Z,8.50
2023-03-17T14:43:25.856Z,7.97
2023-03-17T14:46:17.674Z,8.00
2023-03-17T14:49:19.058Z,7.47
2023-03-17T14:52:08.144Z,7.65
2023-03-17T14:55:00.361Z,8.15
2023-03-17T14:57:52.200Z,8.30
2023-03-17T15:00:46.933Z,9.13
2023-03-17T15:03:41.997Z,7.75
2023-03-17T15:06:34.816Z,8.88
2023-03-17T15:09:28.462Z,8.73
2023-03-17T15:12:20.263Z,8.40
2023-03-17T15:15:21.499Z,7.60
2023-03-17T15:18:14.461Z,7.60
2023-03-17T15:21:03.716Z,7.75
2023-03-17T15:23:53.822Z,7.93
2023-03-17T15:26:42.686Z,7.65
2023-03-17T15:29:31.617Z,7.93
2023-03-17T15:32:22.414Z,7.32
2023-03-17T15:35:14.610Z,7.03
2023-03-17T15:38:04.479Z,7.28
2023-03-17T15:40:54.660Z,7.38
2023-03-17T15:43:45.889Z,6.97
2023-03-17T15:46:34.935Z,7.43
2023-03-17T15:49:26.927Z,6.88
2023-03-17T15:52:17.705Z,7.32
2023-03-17T15:55:15.232Z,6.75
2023-03-17T15:58:05.486Z,7.07
2023-03-17T16:00:57.203Z,7.10
2023-03-17T16:03:47.311Z,6.85
2023-03-17T16:06:36.656Z,7.40
2023-03-17T16:09:25.417Z,7.50
2023-03-17T16:12:14.597Z,7.47
2023-03-17T16:15:10.410Z,6.85
2023-03-17T16:18:08.359Z,7.38
2023-03-17T16:20:57.297Z,6.78
2023-03-17T16:23:46.958Z,8.00
2023-03-17T16:26:35.697Z,6.75
2023-03-17T16:29:24.487Z,6.97
2023-03-17T16:32:14.822Z,7.30
2023-03-17T16:35:05.429Z,7.30
2023-03-17T16:37:55.531Z,6.47
2023-03-17T16:40:46.417Z,6.78
2023-03-17T16:43:38.405Z,6.50
2023-03-17T16:46:29.053Z,7.00
2023-03-17T16:49:20.906Z,7.03
2023-03-17T16:52:11.409Z,6.97
2023-03-17T16:55:00.180Z,6.65
2023-03-17T16:57:51.202Z,6.88
2023-03-17T17:00:39.970Z,7.63
2023-03-17T17:03:29.043Z,6.30
2023-03-17T17:06:20.763Z,6.55
2023-03-17T17:09:09.488Z,6.90
2023-03-17T17:11:58.651Z,7.57
2023-03-17T17:14:47.461Z,7.82
2023-03-17T17:17:38.083Z,7.78
2023-03-17T17:20:30.986Z,7.80
2023-03-17T17:23:23.437Z,8.57
2023-03-17T17:26:12.212Z,8.27
2023-03-17T17:29:01.086Z,9.23
2023-03-17T17:31:49.779Z,9.63
2023-03-17T17:34:38.489Z,10.52
2023-03-17T17:37:27.412Z,10.88
2023-03-17T17:40:19.677Z,10.32
2023-03-17T17:43:09.913Z,10.07
2023-03-17T17:45:58.984Z,11.35
2023-03-17T17:48:48.841Z,10.50
2023-03-17T17:51:37.906Z,9.90
2023-03-17T17:54:26.767Z,9.75
2023-03-17T17:57:17.034Z,10.00
2023-03-17T18:00:07.850Z,9.38
2023-03-17T18:02:59.712Z,9.68
2023-03-17T18:05:48.627Z,9.63
2023-03-17T18:08:37.506Z,9.52
2023-03-17T18:11:26.557Z,10.13
2023-03-17T18:14:16.639Z,10.68
2023-03-17T18:17:05.543Z,9.88
2023-03-17T18:19:54.543Z,8.93
2023-03-17T18:22:44.105Z,8.85
2023-03-17T18:25:33.285Z,8.70
2023-03-17T18:28:22.426Z,9.67
2023-03-17T18:31:15.579Z,9.03
2023-03-17T18:34:09.893Z,10.93
2023-03-17T18:37:01.037Z,9.50
2023-03-17T18:40:06.095Z,9.17
2023-03-17T18:42:58.803Z,10.27
2023-03-17T18:45:47.795Z,9.70
2023-03-17T18:48:38.113Z,10.02
2023-03-17T18:51:26.837Z,9.80
2023-03-17T18:54:15.618Z,9.93
2023-03-17T18:57:04.633Z,10.43
2023-03-17T18:59:53.504Z,11.40
2023-03-17T19:02:42.919Z,10.73
2023-03-17T19:05:36.363Z,11.23
2023-03-17T19:08:25.931Z,11.73
2023-03-17T19:11:16.559Z,11.27
2023-03-17T19:14:05.484Z,11.10
2023-03-17T19:16:54.911Z,10.83
2023-03-17T19:19:46.554Z,10.57
2023-03-17T19:22:36.663Z,11.82
2023-03-17T19:25:25.473Z,11.00
2023-03-17T19:28:14.368Z,11.37
2023-03-17T19:31:03.864Z,11.82
2023-03-17T19:33:52.769Z,12.00
2023-03-17T19:36:46.597Z,12.00
2023-03-17T19:39:37.841Z,11.07
2023-03-17T19:42:26.692Z,11.20
2023-03-17T19:45:15.389Z,10.83
2023-03-17T19:48:04.452Z,11.47
2023-03-17T19:50:53.415Z,11.50
2023-03-17T19:53:45.131Z,11.87
2023-03-17T19:56:35.489Z,11.27
2023-03-17T19:59:24.300Z,12.47
2023-03-17T20:02:15.523Z,12.20
2023-03-17T20:05:04.729Z,12.80
2023-03-17T20:07:53.624Z,11.70
2023-03-17T20:10:42.761Z,12.47
2023-03-17T20:13:33.566Z,12.67
2023-03-17T20:16:22.457Z,11.97
2023-03-17T20:19:11.481Z,12.03
2023-03-17T20:22:00.391Z,12.20
2023-03-17T20:24:49.660Z,12.40
2023-03-17T20:27:38.716Z,11.67
2023-03-17T20:30:28.914Z,12.23
2023-03-17T20:33:18.285Z,12.43
2023-03-17T20:36:07.913Z,12.17
2023-03-17T20:38:56.988Z,12.40
2023-03-17T20:41:45.771Z,12.80
2023-03-17T20:44:34.689Z,12.07
2023-03-17T20:47:24.834Z,12.53
2023-03-17T20:50:14.879Z,13.20
2023-03-17T20:53:03.975Z,12.00
2023-03-17T20:55:52.677Z,12.60
2023-03-17T20:58:41.515Z,12.77
2023-03-17T21:01:30.413Z,11.00
2023-03-17T21:04:21.371Z,12.23
2023-03-17T21:07:10.165Z,12.00
2023-03-17T21:10:02.175Z,11.57
2023-03-17T21:12:51.154Z,11.70
2023-03-17T21:15:40.277Z,11.33
2023-03-17T21:18:29.891Z,11.40
2023-03-17T21:21:21.014Z,11.50
2023-03-17T21:24:14.316Z,10.93
2023-03-17T21:27:06.440Z,11.43
2023-03-17T21:29:55.220Z,9.67
2023-03-17T21:32:44.402Z,10.70
2023-03-17T21:35:35.638Z,11.03
2023-03-17T21:38:27.524Z,10.93
2023-03-17T21:41:23.688Z,10.17
2023-03-17T21:44:15.954Z,10.30
2023-03-17T21:47:04.672Z,10.03
2023-03-17T21:49:53.508Z,12.17
2023-03-17T21:52:43.037Z,10.23
2023-03-17T21:55:33.883Z,10.87
2023-03-17T21:58:23.977Z,9.87
2023-03-17T22:01:13.311Z,10.33
2023-03-17T22:04:02.171Z,10.23
2023-03-17T22:06:52.571Z,10.50
2023-03-17T22:09:41.927Z,10.37
2023-03-17T22:12:32.879Z,10.50
2023-03-17T22:15:24.538Z,10.40
2023-03-17T22:18:13.260Z,10.47
2023-03-17T22:21:02.778Z,9.93
2023-03-17T22:23:51.945Z,10.53
2023-03-17T22:26:41.068Z,9.47
2023-03-17T22:29:31.497Z,9.20
2023-03-17T22:32:20.287Z,10.53
2023-03-17T22:35:09.458Z,9.30
2023-03-17T22:37:58.340Z,8.97
2023-03-17T22:40:47.222Z,9.40
2023-03-17T22:43:36.651Z,9.17
2023-03-17T22:46:27.408Z,9.03
2023-03-17T22:49:16.728Z,9.07
2023-03-17T22:52:06.079Z,9.13
2023-03-17T22:54:54.925Z,10.17
2023-03-17T22:57:44.083Z,9.47
2023-03-17T23:00:33.189Z,8.97
2023-03-17T23:03:24.038Z,8.63
2023-03-17T23:06:14.697Z,8.87
2023-03-17T23:09:03.513Z,9.17
2023-03-17T23:11:52.534Z,8.93
2023-03-17T23:14:42.041Z,9.07
2023-03-17T23:17:31.081Z,8.97
2023-03-17T23:20:21.390Z,8.70
2023-03-17T23:23:12.704Z,8.00
2023-03-17T23:26:01.669Z,7.57
2023-03-17T23:28:50.486Z,8.57
2023-03-17T23:31:39.781Z,8.47
2023-03-17T23:34:28.891Z,8.70
2023-03-17T23:37:18.949Z,8.07
2023-03-17T23:40:10.419Z,8.20
2023-03-17T23:42:59.934Z,7.47
2023-03-17T23:45:53.241Z,8.20
2023-03-17T23:48:43.101Z,7.63
2023-03-17T23:51:32.392Z,8.07
2023-03-17T23:54:22.994Z,7.60
2023-03-17T23:57:11.736Z,8.00
